Time;durP1;ratioP1;P1;durP2;ratioP2;P2;SDS_P1;SDS_P2;PMS_P1;PMS_P2;Temp;Humidity;BMP_temperature;BMP_pressure;BME280_temperature;BME280_humidity;BME280_pressure;Samples;Min_cycle;Max_cycle;Signal;HPM_P1;HPM_P2
2023/06/26 00:00:12;;;;;;;19.33;14.80;;;;;;;19.47;73.32;94580.13;5069662;28;20032;-76
2023/06/26 00:02:38;;;;;;;25.98;15.80;;;;;;;19.51;73.02;94589.28;5069304;28;20028;-76
2023/06/26 00:05:04;;;;;;;17.60;15.32;;;;;;;19.30;73.70;94591.91;5053340;28;20506;-76
2023/06/26 00:07:30;;;;;;;18.55;14.75;;;;;;;19.50;73.08;94584.19;5049098;28;20127;-76
2023/06/26 00:09:56;;;;;;;19.15;15.35;;;;;;;19.37;73.39;94587.53;5016230;28;20031;-76
2023/06/26 00:12:21;;;;;;;17.48;14.85;;;;;;;19.27;73.65;94558.03;5048862;28;20523;-76
2023/06/26 00:14:47;;;;;;;18.33;15.55;;;;;;;19.45;73.18;94591.88;5016181;28;20033;-76
2023/06/26 00:17:12;;;;;;;17.48;14.50;;;;;;;19.66;72.73;94585.81;5032929;28;20037;-76
2023/06/26 00:19:38;;;;;;;17.90;14.60;;;;;;;19.42;73.23;94567.53;5032642;28;20037;-75
2023/06/26 00:22:03;;;;;;;16.65;14.43;;;;;;;19.60;72.69;94588.16;5050271;28;20091;-76
2023/06/26 00:24:29;;;;;;;19.30;14.43;;;;;;;19.65;72.97;94584.97;5032710;28;20430;-76
2023/06/26 00:26:54;;;;;;;16.23;14.07;;;;;;;19.56;73.40;94583.47;5032674;28;20029;-76
2023/06/26 00:29:20;;;;;;;18.30;14.05;;;;;;;19.55;73.11;94582.63;5050575;28;20033;-75
2023/06/26 00:31:46;;;;;;;15.13;12.93;;;;;;;19.58;72.58;94576.19;5053190;28;20700;-76
2023/06/26 00:34:11;;;;;;;15.10;12.88;;;;;;;19.54;73.21;94586.28;5036181;28;20033;-75
2023/06/26 00:36:36;;;;;;;14.43;12.65;;;;;;;19.67;72.64;94587.44;5052764;28;20056;-76
2023/06/26 00:39:03;;;;;;;15.25;13.10;;;;;;;19.47;73.04;94582.75;5054050;28;20025;-76
2023/06/26 00:41:29;;;;;;;14.85;12.98;;;;;;;19.46;72.76;94578.50;5036696;28;20037;-76
2023/06/26 00:43:54;;;;;;;15.15;12.30;;;;;;;19.56;72.89;94576.38;5054101;28;20020;-76
2023/06/26 00:46:19;;;;;;;14.90;13.25;;;;;;;19.49;73.12;94577.31;5054306;28;20020;-75
2023/06/26 00:48:46;;;;;;;12.98;11.55;;;;;;;19.55;72.74;94579.19;5072077;28;20036;-76
2023/06/26 00:51:11;;;;;;;15.77;12.40;;;;;;;19.41;73.34;94575.59;5055622;28;20033;-76
2023/06/26 00:53:37;;;;;;;16.30;12.07;;;;;;;19.31;72.95;94554.03;5055583;28;20028;-76
2023/06/26 00:56:02;;;;;;;14.77;12.15;;;;;;;19.35;73.34;94568.47;5072125;28;20032;-75
2023/06/26 00:58:28;;;;;;;12.93;11.10;;;;;;;19.39;73.31;94575.00;5055709;28;20047;-75
2023/06/26 01:00:53;;;;;;;12.77;11.48;;;;;;;19.50;72.90;94574.50;5072491;28;20024;-75
2023/06/26 01:03:20;;;;;;;14.55;11.55;;;;;;;19.27;73.06;94563.31;5072406;28;20124;-75
2023/06/26 01:05:49;;;;;;;11.93;10.73;;;;;;;19.44;73.15;94567.31;5055704;28;20100;-76
2023/06/26 01:08:15;;;;;;;12.30;11.00;;;;;;;19.33;72.82;94555.47;5071692;28;20032;-76
2023/06/26 01:10:40;;;;;;;13.30;11.15;;;;;;;19.37;73.07;94554.09;5055687;28;20035;-76
2023/06/26 01:13:06;;;;;;;12.20;11.00;;;;;;;19.46;72.64;94560.06;5055782;28;20036;-76
2023/06/26 01:15:31;;;;;;;11.27;10.05;;;;;;;19.16;73.21;94552.25;5072177;28;20037;-76
2023/06/26 01:17:59;;;;;;;12.02;9.98;;;;;;;19.18;73.82;94555.53;5038944;28;20032;-76
2023/06/26 01:20:25;;;;;;;12.23;10.07;;;;;;;19.08;73.59;94552.34;5055644;28;20036;-76
2023/06/26 01:23:29;;;;;;;11.10;9.90;;;;;;;19.09;73.97;94553.19;5055361;28;20036;-76
2023/06/26 01:26:15;;;;;;;12.88;10.23;;;;;;;19.13;74.02;94554.44;5071952;28;20086;-76
2023/06/26 01:28:43;;;;;;;11.88;10.27;;;;;;;19.35;73.18;94550.03;5072055;28;20051;-76
2023/06/26 01:31:10;;;;;;;11.57;10.30;;;;;;;19.29;73.16;94548.94;5055585;28;20048;-76
2023/06/26 01:33:35;;;;;;;11.30;10.10;;;;;;;19.10;73.38;94547.72;5055375;28;20090;-76
2023/06/26 01:36:01;;;;;;;14.20;10.68;;;;;;;19.17;73.53;94532.03;5055324;28;20123;-76
2023/06/26 01:38:26;;;;;;;10.93;9.82;;;;;;;19.21;73.49;94543.81;5055150;28;20486;-76
2023/06/26 01:40:52;;;;;;;12.50;10.30;;;;;;;18.88;74.83;94543.44;5055119;28;20029;-76
2023/06/26 01:43:27;;;;;;;11.27;9.73;;;;;;;19.06;74.88;94537.78;5055538;28;20512;-76
2023/06/26 01:45:55;;;;;;;11.70;9.05;;;;;;;19.00;74.21;94520.91;5056051;28;20041;-76
2023/06/26 01:48:24;;;;;;;11.38;9.75;;;;;;;19.07;74.41;94527.06;5055117;28;20028;-76
2023/06/26 01:50:50;;;;;;;14.18;10.07;;;;;;;19.14;73.88;94538.47;5055117;28;20060;-76
2023/06/26 01:53:18;;;;;;;12.13;9.90;;;;;;;19.05;74.17;94529.03;5071830;28;20464;-76
2023/06/26 01:56:01;;;;;;;12.40;10.13;;;;;;;19.01;74.62;94537.53;5054790;28;20031;-76
2023/06/26 01:58:26;;;;;;;10.70;9.20;;;;;;;19.04;74.15;94537.94;5038627;28;20037;-76
2023/06/26 02:00:52;;;;;;;11.63;10.23;;;;;;;18.90;74.73;94539.63;5037962;28;20040;-76
2023/06/26 02:03:17;;;;;;;14.23;9.98;;;;;;;18.73;74.63;94512.66;5054820;28;20032;-76
2023/06/26 02:05:44;;;;;;;11.20;9.52;;;;;;;18.99;75.04;94532.44;5071507;28;20483;-76
2023/06/26 02:08:10;;;;;;;11.88;10.07;;;;;;;18.99;74.52;94535.06;5054973;28;20060;-76
2023/06/26 02:10:36;;;;;;;13.05;10.98;;;;;;;18.87;74.52;94526.84;5071207;28;20470;-76
2023/06/26 02:13:01;;;;;;;11.65;10.10;;;;;;;18.82;75.25;94523.13;5054714;28;20075;-76
2023/06/26 02:15:26;;;;;;;13.10;10.30;;;;;;;18.66;75.81;94534.63;5071313;28;20043;-76
2023/06/26 02:17:52;;;;;;;12.88;11.40;;;;;;;18.69;75.66;94537.72;5071202;28;20029;-76
2023/06/26 02:20:17;;;;;;;13.02;11.50;;;;;;;18.74;74.80;94535.38;5072237;28;20029;-76
2023/06/26 02:22:43;;;;;;;13.23;10.07;;;;;;;18.64;75.23;94511.16;5072421;28;20027;-76
2023/06/26 02:25:09;;;;;;;12.57;11.15;;;;;;;18.23;76.56;94530.03;5071126;28;20028;-76
2023/06/26 02:27:35;;;;;;;14.55;10.15;;;;;;;18.46;75.96;94526.50;5071026;28;20025;-76
2023/06/26 02:30:00;;;;;;;12.27;10.77;;;;;;;18.41;75.96;94534.09;5071939;28;20020;-76
2023/06/26 02:32:26;;;;;;;12.38;11.07;;;;;;;18.54;74.87;94547.44;5071909;28;20483;-76
2023/06/26 02:34:54;;;;;;;14.05;11.35;;;;;;;18.59;74.96;94534.56;5054026;28;20036;-76
2023/06/26 02:37:19;;;;;;;13.52;11.18;;;;;;;18.74;74.28;94537.19;5054606;28;20079;-76
2023/06/26 02:39:45;;;;;;;12.95;11.13;;;;;;;18.60;74.31;94546.69;5072062;28;20020;-76
2023/06/26 02:42:10;;;;;;;14.35;12.00;;;;;;;18.66;74.29;94539.88;5053920;28;20029;-76
2023/06/26 02:44:36;;;;;;;12.95;11.65;;;;;;;18.61;74.17;94537.81;5037419;28;20090;-76
2023/06/26 02:47:01;;;;;;;13.55;11.52;;;;;;;18.61;74.05;94542.25;5070458;28;20032;-76
2023/06/26 02:49:26;;;;;;;13.35;11.80;;;;;;;18.70;73.90;94539.34;5070346;28;20531;-76
2023/06/26 02:51:52;;;;;;;14.45;11.73;;;;;;;18.79;74.04;94547.19;5036838;28;20025;-76
2023/06/26 02:54:17;;;;;;;13.07;11.68;;;;;;;18.79;73.85;94534.03;5070592;28;20127;-76
2023/06/26 02:56:43;;;;;;;14.18;12.68;;;;;;;18.62;74.28;94538.63;5053901;28;20024;-76
2023/06/26 02:59:08;;;;;;;15.45;12.60;;;;;;;18.81;73.59;94547.81;5053579;28;20043;-76
2023/06/26 03:01:34;;;;;;;14.65;13.15;;;;;;;18.73;73.80;94540.81;5053721;28;20414;-76
2023/06/26 03:04:00;;;;;;;14.88;13.38;;;;;;;18.88;73.60;94551.31;5071521;28;20028;-76
2023/06/26 03:06:27;;;;;;;15.82;13.00;;;;;;;18.79;73.72;94555.06;5070529;28;20029;-76
2023/06/26 03:08:52;;;;;;;15.07;12.90;;;;;;;18.77;73.94;94554.44;5037160;28;20264;-76
2023/06/26 03:11:18;;;;;;;15.15;13.55;;;;;;;18.79;73.60;94552.44;5037083;28;20029;-76
2023/06/26 03:13:43;;;;;;;15.10;13.50;;;;;;;18.77;73.60;94546.53;5071353;28;20020;-76
2023/06/26 03:16:09;;;;;;;14.20;12.80;;;;;;;18.90;72.83;94557.22;5070141;28;20035;-76
2023/06/26 03:18:34;;;;;;;15.52;13.55;;;;;;;18.78;73.06;94537.63;5053360;28;20478;-75
2023/06/26 03:20:59;;;;;;;13.90;12.50;;;;;;;18.97;73.03;94552.84;5053607;28;20043;-76
2023/06/26 03:23:25;;;;;;;14.32;12.88;;;;;;;18.80;73.04;94551.44;5053606;28;20032;-76
2023/06/26 03:25:50;;;;;;;14.15;12.40;;;;;;;18.81;73.16;94542.56;5053478;28;20413;-76
2023/06/26 03:28:16;;;;;;;13.88;12.40;;;;;;;18.83;73.12;94553.69;5069955;28;20494;-76
2023/06/26 03:30:41;;;;;;;15.10;13.50;;;;;;;19.06;72.98;94550.94;5071409;28;20166;-76
2023/06/26 03:33:07;;;;;;;15.45;13.82;;;;;;;18.92;72.65;94549.97;5071417;28;20464;-76
2023/06/26 03:35:32;;;;;;;13.80;12.38;;;;;;;18.84;72.41;94515.88;5053068;28;20101;-76
2023/06/26 03:37:58;;;;;;;14.88;13.38;;;;;;;19.03;72.19;94541.59;5069845;28;20028;-76
2023/06/26 03:40:23;;;;;;;14.25;12.85;;;;;;;19.10;71.90;94554.81;5053504;28;20039;-76
2023/06/26 03:42:49;;;;;;;15.50;13.85;;;;;;;19.15;71.57;94555.09;5053409;28;20021;-76
2023/06/26 03:45:14;;;;;;;15.55;13.13;;;;;;;19.23;71.15;94547.06;5069704;28;20491;-76
2023/06/26 03:47:39;;;;;;;16.17;12.90;;;;;;;19.05;71.40;94560.63;5071512;28;20035;-76
2023/06/26 03:50:05;;;;;;;15.05;13.18;;;;;;;19.11;71.05;94553.81;5053318;28;20036;-76
2023/06/26 03:52:31;;;;;;;15.25;13.10;;;;;;;19.17;71.17;94547.81;5053369;28;20490;-76
2023/06/26 03:54:59;;;;;;;14.82;13.32;;;;;;;19.19;71.20;94551.06;5036207;28;20033;-76
2023/06/26 03:57:25;;;;;;;15.70;13.73;;;;;;;19.06;71.69;94556.22;5069955;28;20029;-76
2023/06/26 03:59:50;;;;;;;16.08;13.32;;;;;;;19.19;71.06;94551.06;5070995;28;20028;-76
2023/06/26 04:02:15;;;;;;;14.48;13.07;;;;;;;18.84;71.46;94523.75;5071069;28;20411;-76
2023/06/26 04:04:41;;;;;;;15.25;13.70;;;;;;;19.02;71.19;94536.50;5073108;28;20025;-76
2023/06/26 04:07:06;;;;;;;14.52;13.02;;;;;;;19.13;71.52;94544.72;5057039;28;20033;-76
2023/06/26 04:09:32;;;;;;;15.07;13.50;;;;;;;19.12;70.95;94545.75;5073832;28;20398;-76
2023/06/26 04:11:57;;;;;;;14.60;13.18;;;;;;;19.10;71.34;94542.47;5057334;28;20080;-76
2023/06/26 04:14:22;;;;;;;16.20;14.43;;;;;;;18.92;71.54;94534.19;5073525;28;20414;-76
2023/06/26 04:16:48;;;;;;;15.18;13.57;;;;;;;19.06;71.54;94537.78;5056966;28;20036;-76
2023/06/26 04:19:13;;;;;;;15.85;13.88;;;;;;;19.12;71.69;94519.41;5074804;28;20024;-76
2023/06/26 04:21:39;;;;;;;14.70;13.20;;;;;;;19.38;70.49;94537.28;5075077;28;20032;-76
2023/06/26 04:24:05;;;;;;;14.48;12.98;;;;;;;19.56;69.66;94544.78;5073244;28;20536;-76
2023/06/26 04:26:30;;;;;;;14.85;13.35;;;;;;;19.57;70.39;94551.66;5073502;28;20043;-76
2023/06/26 04:28:55;;;;;;;14.52;12.95;;;;;;;19.57;70.09;94542.94;5037006;28;20048;-76
2023/06/26 04:31:22;;;;;;;13.45;12.15;;;;;;;19.71;69.32;94549.19;5047303;28;20037;-76
2023/06/26 04:33:50;;;;;;;13.70;12.32;;;;;;;19.88;69.02;94555.81;5055552;28;20029;-76
2023/06/26 04:36:16;;;;;;;16.02;12.43;;;;;;;19.85;68.58;94557.00;5053008;28;20499;-76
2023/06/26 04:38:42;;;;;;;14.40;11.55;;;;;;;19.99;67.88;94560.56;5036583;28;20031;-77
2023/06/26 04:41:07;;;;;;;12.82;11.52;;;;;;;19.98;68.16;94548.41;5052999;28;20025;-76
2023/06/26 04:43:32;;;;;;;13.63;12.23;;;;;;;20.09;67.78;94561.06;5052984;28;20095;-77
2023/06/26 04:45:58;;;;;;;14.80;12.48;;;;;;;19.83;67.71;94550.28;5042046;28;20029;-76
2023/06/26 04:48:23;;;;;;;14.05;12.40;;;;;;;20.05;67.67;94556.34;5034080;28;20025;-76
2023/06/26 04:50:53;;;;;;;12.73;11.43;;;;;;;20.17;67.38;94561.91;5054196;28;20036;-76
2023/06/26 04:53:22;;;;;;;12.93;11.63;;;;;;;20.22;67.65;94562.13;5053870;28;20407;-79
2023/06/26 04:55:49;;;;;;;13.07;11.77;;;;;;;20.23;66.86;94555.88;5036279;28;20525;-78
2023/06/26 04:58:14;;;;;;;12.75;11.55;;;;;;;20.24;67.30;94565.41;5052806;28;20033;-78
2023/06/26 05:00:42;;;;;;;13.38;12.07;;;;;;;20.20;66.63;94564.19;5064883;28;20087;-78
2023/06/26 05:03:16;;;;;;;13.05;11.40;;;;;;;20.04;66.78;94571.34;5064853;28;20131;-76
2023/06/26 05:05:42;;;;;;;13.68;12.27;;;;;;;19.97;67.44;94565.19;5073571;28;20062;-76
2023/06/26 05:08:43;;;;;;;13.80;11.60;;;;;;;19.95;67.60;94569.88;5070572;28;20037;-76
2023/06/26 05:11:08;;;;;;;;;;;;;;;19.80;68.21;94571.75;5058183;28;20033;-74
2023/06/26 05:13:33;;;;;;;13.23;11.93;;;;;;;19.81;67.88;94565.50;5053487;28;20329;-74
2023/06/26 05:15:59;;;;;;;13.15;11.80;;;;;;;19.82;68.51;94573.19;5022271;28;20293;-74
2023/06/26 05:18:24;;;;;;;18.25;12.95;;;;;;;19.86;68.71;94566.56;5071943;28;20504;-74
2023/06/26 05:20:50;;;;;;;14.80;13.15;;;;;;;19.76;68.73;94578.41;5072962;28;20037;-74
2023/06/26 05:23:15;;;;;;;15.55;12.90;;;;;;;19.70;68.82;94568.63;5055866;28;20041;-74
2023/06/26 05:25:41;;;;;;;14.32;12.88;;;;;;;19.79;68.89;94578.84;5033443;28;20036;-75
2023/06/26 05:28:09;;;;;;;14.20;12.70;;;;;;;19.91;68.28;94573.88;5034102;28;20123;-74
2023/06/26 05:30:35;;;;;;;13.25;11.85;;;;;;;19.93;68.61;94579.78;5018902;28;20095;-74
2023/06/26 05:33:01;;;;;;;13.30;11.93;;;;;;;19.84;68.37;94557.19;5034886;28;20041;-74
2023/06/26 05:35:29;;;;;;;14.65;12.30;;;;;;;19.91;68.78;94565.97;5057604;28;20418;-74
2023/06/26 05:37:54;;;;;;;13.82;12.40;;;;;;;19.82;68.75;94582.94;5072887;28;20028;-74
2023/06/26 05:40:20;;;;;;;12.77;11.48;;;;;;;20.04;69.01;94581.09;5054323;28;20093;-74
2023/06/26 05:42:46;;;;;;;14.15;12.00;;;;;;;19.93;68.32;94587.69;5071601;28;20024;-74
2023/06/26 05:45:11;;;;;;;13.73;12.25;;;;;;;19.98;68.31;94572.13;5070362;28;20067;-74
2023/06/26 05:47:37;;;;;;;13.45;11.98;;;;;;;19.88;68.25;94576.88;5020167;28;20051;-75
2023/06/26 05:50:03;;;;;;;15.32;12.93;;;;;;;19.97;67.93;94581.00;5034900;28;20036;-75
2023/06/26 05:52:29;;;;;;;13.55;12.13;;;;;;;20.02;68.11;94576.00;5050278;28;20041;-75
2023/06/26 05:54:58;;;;;;;13.52;12.13;;;;;;;20.08;68.29;94577.84;5033265;28;20110;-76
2023/06/26 05:57:24;;;;;;;13.65;12.23;;;;;;;20.06;68.83;94582.53;5068189;28;20090;-76
2023/06/26 05:59:49;;;;;;;13.65;12.35;;;;;;;20.30;68.15;94588.38;5038269;28;20033;-78
2023/06/26 06:02:14;;;;;;;14.75;12.57;;;;;;;20.38;68.90;94588.22;5050606;28;20028;-75
2023/06/26 06:04:40;;;;;;;14.40;12.98;;;;;;;20.49;67.08;94582.41;5058275;28;20028;-75
2023/06/26 06:07:05;;;;;;;14.82;12.80;;;;;;;20.32;67.58;94581.09;5070450;28;20032;-75
2023/06/26 06:09:31;;;;;;;18.77;12.60;;;;;;;20.49;66.84;94578.97;5053616;28;20028;-73
2023/06/26 06:11:56;;;;;;;12.90;11.60;;;;;;;20.55;67.42;94574.75;5037427;28;20036;-72
2023/06/26 06:14:22;;;;;;;13.63;11.82;;;;;;;20.66;66.88;94584.78;5070794;28;20028;-72
2023/06/26 06:16:47;;;;;;;13.32;11.50;;;;;;;20.58;67.56;94584.94;5053951;28;20033;-71
2023/06/26 06:19:13;;;;;;;13.70;12.23;;;;;;;20.68;66.66;94590.69;5071107;28;20036;-75
2023/06/26 06:21:39;;;;;;;13.02;11.73;;;;;;;20.77;67.24;94592.13;5067087;28;20506;-75
2023/06/26 06:24:06;;;;;;;12.70;11.35;;;;;;;20.77;65.53;94576.31;5070245;28;20115;-74
2023/06/26 06:26:31;;;;;;;12.10;10.90;;;;;;;20.80;66.44;94569.81;5064594;28;20452;-74
2023/06/26 06:28:57;;;;;;;13.88;12.48;;;;;;;20.76;66.38;94558.84;5068991;28;20032;-74
2023/06/26 06:31:22;;;;;;;12.35;11.07;;;;;;;21.06;64.96;94579.66;5071938;28;20474;-74
2023/06/26 06:33:48;;;;;;;11.90;10.70;;;;;;;21.23;63.42;94569.56;5071660;28;20479;-74
2023/06/26 06:36:13;;;;;;;13.73;11.27;;;;;;;21.32;63.68;94582.41;5036839;28;20052;-74
2023/06/26 06:38:38;;;;;;;11.30;10.20;;;;;;;21.33;63.83;94581.41;5071542;28;20058;-74
2023/06/26 06:41:04;;;;;;;13.02;11.63;;;;;;;21.24;63.71;94574.69;5053427;28;20051;-74
2023/06/26 06:43:29;;;;;;;11.48;10.27;;;;;;;21.66;62.79;94570.13;5053901;28;20024;-74
2023/06/26 06:45:55;;;;;;;11.25;10.13;;;;;;;21.98;62.28;94567.69;5053498;28;20475;-74
2023/06/26 06:48:20;;;;;;;11.52;10.13;;;;;;;22.02;61.84;94579.50;5071292;28;20028;-74
2023/06/26 06:50:45;;;;;;;11.20;10.10;;;;;;;22.08;61.08;94568.94;5069855;28;20028;-74
2023/06/26 06:53:11;;;;;;;11.60;10.45;;;;;;;22.15;60.62;94558.38;5053499;28;20037;-74
2023/06/26 06:55:36;;;;;;;11.43;10.18;;;;;;;22.25;60.38;94572.00;5071374;28;20027;-74
2023/06/26 06:58:02;;;;;;;12.02;9.98;;;;;;;22.65;59.91;94568.47;5071252;28;20460;-74
2023/06/26 07:00:27;;;;;;;11.27;10.10;;;;;;;22.52;60.03;94569.31;5069837;28;20033;-74
2023/06/26 07:02:53;;;;;;;11.02;9.73;;;;;;;22.51;60.40;94565.88;5069842;28;20035;-74
2023/06/26 07:05:18;;;;;;;11.38;10.25;;;;;;;22.62;60.23;94548.56;5071048;28;20028;-74
2023/06/26 07:07:44;;;;;;;11.57;10.38;;;;;;;22.87;58.92;94569.03;5069860;28;20119;-74
2023/06/26 07:10:10;;;;;;;10.80;9.70;;;;;;;22.90;58.50;94542.97;5070928;28;20055;-74
2023/06/26 07:12:36;;;;;;;10.23;8.95;;;;;;;23.17;57.05;94569.34;5069857;28;20024;-74
2023/06/26 07:15:02;;;;;;;10.07;9.00;;;;;;;23.13;57.39;94571.63;5053037;28;20486;-74
2023/06/26 07:17:28;;;;;;;9.82;8.82;;;;;;;23.15;56.46;94555.50;5036705;28;20032;-74
2023/06/26 07:19:53;;;;;;;9.73;8.73;;;;;;;23.59;57.08;94559.13;5069554;28;20490;-74
2023/06/26 07:22:21;;;;;;;11.38;8.70;;;;;;;23.62;56.85;94562.19;5070971;28;20036;-74
2023/06/26 07:24:47;;;;;;;9.93;8.85;;;;;;;23.88;56.74;94560.41;5069602;28;20567;-74
2023/06/26 07:27:18;;;;;;;8.90;7.85;;;;;;;24.14;55.31;94558.56;5069464;28;20119;-74
2023/06/26 07:29:44;;;;;;;8.88;7.97;;;;;;;24.24;55.86;94559.72;5069723;28;20509;-74
2023/06/26 07:32:09;;;;;;;11.30;8.00;;;;;;;24.13;54.82;94551.66;5069519;28;20028;-74
2023/06/26 07:34:35;;;;;;;8.27;7.47;;;;;;;24.61;53.14;94556.34;5069491;28;20028;-74
2023/06/26 07:37:00;;;;;;;8.27;6.70;;;;;;;24.62;51.49;94547.31;5052881;28;20056;-74
2023/06/26 07:39:25;;;;;;;10.60;6.82;;;;;;;24.09;52.56;94554.72;5035985;28;20031;-74
2023/06/26 07:41:51;;;;;;;8.38;7.53;;;;;;;23.56;53.23;94552.41;5052675;28;20024;-74
2023/06/26 07:44:16;;;;;;;8.07;7.28;;;;;;;23.80;53.94;94565.97;5052778;28;20033;-75
2023/06/26 07:46:42;;;;;;;8.25;7.47;;;;;;;23.76;54.20;94556.81;5052764;28;20040;-74
2023/06/26 07:49:07;;;;;;;9.23;7.60;;;;;;;23.56;53.57;94552.41;5070766;28;20025;-74
2023/06/26 07:51:32;;;;;;;7.68;6.88;;;;;;;23.57;54.13;94556.72;5052871;28;20056;-74
2023/06/26 07:53:58;;;;;;;7.53;6.75;;;;;;;23.31;54.18;94562.97;5036036;28;20074;-74
2023/06/26 07:56:23;;;;;;;6.72;6.03;;;;;;;23.28;52.99;94562.56;5069408;28;20028;-74
2023/06/26 07:58:49;;;;;;;7.75;6.65;;;;;;;23.20;53.31;94519.41;5069441;28;20037;-74
2023/06/26 08:01:14;;;;;;;6.78;6.07;;;;;;;23.32;52.92;94553.19;5070800;28;20387;-74
2023/06/26 08:03:40;;;;;;;9.00;5.85;;;;;;;23.54;52.07;94561.63;5069356;28;20020;-74
2023/06/26 08:06:05;;;;;;;7.80;5.63;;;;;;;23.60;51.51;94561.59;5052601;28;20036;-74
2023/06/26 08:08:31;;;;;;;6.00;5.38;;;;;;;23.59;51.38;94570.56;5069208;28;20028;-74
2023/06/26 08:10:56;;;;;;;6.10;5.50;;;;;;;23.49;51.43;94553.50;5070621;28;20028;-74
2023/06/26 08:13:22;;;;;;;5.75;4.90;;;;;;;23.47;51.11;94564.31;5069265;28;20028;-74
2023/06/26 08:15:47;;;;;;;6.40;4.88;;;;;;;23.32;51.33;94561.16;5052522;28;20032;-74
2023/06/26 08:18:12;;;;;;;7.18;5.55;;;;;;;23.36;52.54;94554.38;5069345;28;20391;-74
2023/06/26 08:20:38;;;;;;;7.00;5.30;;;;;;;23.62;53.19;94550.75;5070502;28;20028;-74
2023/06/26 08:23:04;;;;;;;6.00;5.10;;;;;;;24.04;50.94;94551.94;5069154;28;20078;-74
2023/06/26 08:25:29;;;;;;;7.05;5.50;;;;;;;23.96;51.67;94536.28;5035850;28;20086;-74
2023/06/26 08:27:55;;;;;;;7.30;5.00;;;;;;;23.87;49.69;94540.22;5052253;28;20036;-74
2023/06/26 08:30:20;;;;;;;6.20;5.60;;;;;;;23.96;50.17;94548.72;5052197;28;20043;-74
2023/06/26 08:32:46;;;;;;;6.70;5.15;;;;;;;24.40;50.17;94541.59;5052370;28;20037;-74
2023/06/26 08:35:12;;;;;;;7.47;5.38;;;;;;;24.37;49.92;94557.97;5052060;28;20540;-74
2023/06/26 08:37:37;;;;;;;6.80;5.57;;;;;;;24.24;50.40;94553.59;5069165;28;20490;-74
2023/06/26 08:40:04;;;;;;;6.60;4.65;;;;;;;24.04;51.12;94559.88;5052226;28;20078;-74
2023/06/26 08:42:29;;;;;;;6.03;5.05;;;;;;;24.19;50.60;94553.44;5052481;28;20477;-74
2023/06/26 08:44:54;;;;;;;6.30;5.15;;;;;;;24.31;50.24;94551.69;5070179;28;20052;-74
2023/06/26 08:47:20;;;;;;;5.75;5.15;;;;;;;24.22;48.64;94545.03;5068899;28;20473;-74
2023/06/26 08:49:45;;;;;;;7.82;5.25;;;;;;;24.29;49.10;94545.78;5052591;28;20471;-74
2023/06/26 08:52:19;;;;;;;7.30;4.97;;;;;;;24.16;49.98;94552.03;5073670;28;20571;-74
2023/06/26 08:54:52;;;;;;;5.60;4.07;;;;;;;24.30;48.72;94556.19;5073579;28;20028;-74
2023/06/26 08:57:19;;;;;;;5.75;4.40;;;;;;;24.17;47.38;94558.13;5072510;28;20032;-74
2023/06/26 08:59:45;;;;;;;7.22;4.13;;;;;;;24.22;47.24;94545.03;5073811;28;20056;-74
2023/06/26 09:02:11;;;;;;;6.60;3.80;;;;;;;24.30;49.17;94550.06;5055787;28;20091;-74
2023/06/26 09:04:36;;;;;;;5.00;3.53;;;;;;;24.31;47.54;94546.38;5055501;28;20501;-74
2023/06/26 09:07:01;;;;;;;4.93;3.40;;;;;;;24.29;47.51;94543.97;5038827;28;20391;-74
2023/06/26 09:09:27;;;;;;;5.05;4.55;;;;;;;23.77;48.75;94531.94;5072189;28;20035;-74
2023/06/26 09:11:53;;;;;;;4.38;3.97;;;;;;;23.94;48.88;94551.59;5055723;28;20038;-74
2023/06/26 09:14:18;;;;;;;4.38;3.97;;;;;;;24.05;49.54;94553.53;5072161;28;20040;-74
2023/06/26 09:16:45;;;;;;;7.45;4.72;;;;;;;24.05;49.34;94552.72;5073674;28;20470;-74
2023/06/26 09:19:11;;;;;;;6.82;4.63;;;;;;;23.83;48.72;94523.13;5071957;28;20108;-74
2023/06/26 09:21:40;;;;;;;6.68;5.13;;;;;;;23.87;50.09;94534.91;5071817;28;20032;-74
2023/06/26 09:24:07;;;;;;;5.15;4.20;;;;;;;24.06;50.03;94536.59;5038925;28;20136;-74
2023/06/26 09:26:33;;;;;;;5.15;4.65;;;;;;;24.13;50.31;94533.09;5071875;28;20032;-74
2023/06/26 09:28:59;;;;;;;6.47;5.03;;;;;;;24.28;49.91;94541.50;5071731;28;20040;-74
2023/06/26 09:31:24;;;;;;;5.88;4.82;;;;;;;24.57;49.58;94539.22;5038494;28;20059;-75
2023/06/26 09:33:50;;;;;;;5.20;4.68;;;;;;;24.60;49.14;94530.81;5055007;28;20029;-74
2023/06/26 09:36:19;;;;;;;5.35;4.85;;;;;;;24.70;48.50;94525.78;5054674;28;20048;-74
2023/06/26 09:38:45;;;;;;;6.07;4.60;;;;;;;24.79;48.18;94539.59;5071569;28;20111;-74
2023/06/26 09:41:10;;;;;;;6.57;5.20;;;;;;;24.80;49.30;94543.88;5073045;28;20043;-74
2023/06/26 09:43:45;;;;;;;6.30;4.50;;;;;;;24.46;48.15;94538.94;5071581;28;20035;-75
2023/06/26 09:46:15;;;;;;;5.05;4.55;;;;;;;24.46;48.47;94536.28;5071730;28;20113;-74
2023/06/26 09:48:41;;;;;;;7.20;4.70;;;;;;;24.55;48.51;94531.47;5072636;28;20085;-74
2023/06/26 09:51:06;;;;;;;5.93;4.43;;;;;;;24.69;48.95;94530.31;5054486;28;20036;-74
2023/06/26 09:53:32;;;;;;;5.93;4.68;;;;;;;25.02;47.74;94542.41;5054650;28;20063;-74
2023/06/26 09:55:57;;;;;;;5.97;4.40;;;;;;;25.14;46.40;94539.78;5054624;28;20033;-74
2023/06/26 09:58:23;;;;;;;5.68;3.92;;;;;;;25.16;45.74;94543.06;5071256;28;20106;-74
2023/06/26 10:00:48;;;;;;;5.90;4.38;;;;;;;25.04;46.92;94539.50;5054435;28;20028;-74
2023/06/26 10:03:14;;;;;;;5.72;4.55;;;;;;;24.88;46.96;94547.06;5071126;28;20040;-74
2023/06/26 10:05:40;;;;;;;5.13;4.22;;;;;;;25.08;47.23;94548.66;5071066;28;20040;-74
2023/06/26 10:08:05;;;;;;;5.88;4.85;;;;;;;24.65;47.68;94536.25;5054273;28;20044;-74
2023/06/26 10:10:33;;;;;;;4.95;4.43;;;;;;;24.74;47.69;94541.06;5054187;28;20513;-74
2023/06/26 10:13:00;;;;;;;6.07;4.97;;;;;;;24.65;47.99;94542.38;5071082;28;20028;-74
2023/06/26 10:15:25;;;;;;;5.18;4.68;;;;;;;24.45;47.99;94539.94;5054303;28;20020;-74
2023/06/26 10:17:51;;;;;;;5.20;4.70;;;;;;;24.40;48.44;94531.78;5054155;28;20395;-74
2023/06/26 10:20:16;;;;;;;5.22;4.38;;;;;;;24.59;48.06;94531.84;5054069;28;20029;-74
2023/06/26 10:22:45;;;;;;;6.90;4.72;;;;;;;24.34;47.71;94532.66;5054317;28;20029;-74
2023/06/26 10:25:11;;;;;;;6.40;4.68;;;;;;;24.32;47.36;94540.03;5053890;28;20494;-74
2023/06/26 10:27:41;;;;;;;4.90;4.35;;;;;;;24.14;47.74;94542.66;5053915;28;20033;-74
2023/06/26 10:30:11;;;;;;;5.97;4.43;;;;;;;24.42;47.60;94534.22;5037826;28;20040;-74
2023/06/26 10:32:36;;;;;;;6.35;4.53;;;;;;;24.37;47.54;94524.25;5054010;28;20112;-74
2023/06/26 10:35:03;;;;;;;7.22;4.63;;;;;;;24.49;47.90;94533.16;5053459;28;20055;-74
2023/06/26 10:37:44;;;;;;;11.70;5.13;;;;;;;24.46;47.77;94535.44;5054022;28;20035;-74
2023/06/26 10:40:10;;;;;;;6.82;4.82;;;;;;;24.70;47.22;94531.09;5053723;28;20036;-74
2023/06/26 10:42:37;;;;;;;7.35;4.80;;;;;;;24.61;47.11;94532.44;5053727;28;20082;-74
2023/06/26 10:45:23;;;;;;;6.18;5.00;;;;;;;24.38;48.16;94530.41;5070283;28;20031;-75
2023/06/26 10:47:52;;;;;;;6.97;5.30;;;;;;;24.24;48.64;94537.69;5053304;28;20043;-74
2023/06/26 10:50:24;;;;;;;5.82;4.82;;;;;;;24.17;48.41;94534.25;5070072;28;20020;-74
2023/06/26 10:53:11;;;;;;;5.88;4.78;;;;;;;24.02;48.45;94532.75;5070123;28;20040;-74
2023/06/26 10:55:37;;;;;;;7.38;5.25;;;;;;;23.98;49.49;94528.91;5070163;28;20032;-74
2023/06/26 10:58:03;;;;;;;7.07;5.50;;;;;;;23.84;50.28;94538.00;5070011;28;20077;-74
2023/06/26 11:00:28;;;;;;;7.35;5.15;;;;;;;23.77;50.33;94530.09;5053395;28;20104;-74
2023/06/26 11:02:53;;;;;;;6.07;5.35;;;;;;;23.68;50.54;94530.53;5069986;28;20474;-75
2023/06/26 11:05:32;;;;;;;7.15;5.60;;;;;;;23.57;50.63;94518.78;5069985;28;20055;-75
2023/06/26 11:08:12;;;;;;;7.05;5.32;;;;;;;23.59;50.96;94522.03;5053233;28;20032;-75
2023/06/26 11:10:51;;;;;;;10.57;5.35;;;;;;;23.59;50.70;94514.06;5053943;28;20132;-75
2023/06/26 11:13:18;;;;;;;5.63;4.85;;;;;;;23.53;50.93;94523.69;5069342;28;20090;-75
2023/06/26 11:15:44;;;;;;;8.55;5.32;;;;;;;23.57;49.23;94529.41;5053311;28;20052;-75
2023/06/26 11:18:10;;;;;;;7.65;5.38;;;;;;;23.61;48.10;94514.69;5053089;28;20040;-75
2023/06/26 11:20:35;;;;;;;6.10;4.63;;;;;;;23.53;48.59;94521.03;5053116;28;20039;-75